<?xml version="1.0" encoding="UTF-8" standalone="no" ?>
<gpx xmlns="http://www.topografix.com/GPX/1/1" xmlns:xsi="http://www.w3.org/2001/XMLSchema-instance" xsi:schemaLocation="http://www.topografix.com/GPX/1/1 http://www.topografix.com/GPX/1/1/gpx.xsd" version="1.1" creator="VisuGPX - https://www.visugpx.com">
  <metadata>
    <name>Chemin Faisant à Bordeaux</name>
    <desc><![CDATA[Balade nocturne.]]></desc>
  </metadata>
  <trk>
    <name><![CDATA[2016-03-23 22:25:03]]></name>
    <trkseg>
      <trkpt lat="44.83924" lon="-0.55975">
        <ele>9.75</ele>
        <time>2016-03-23T18:56:23Z</time>
      </trkpt>
      <trkpt lat="44.83924" lon="-0.55978">
        <ele>8.31</ele>
        <time>2016-03-23T18:56:42Z</time>
      </trkpt>
      <trkpt lat="44.83925" lon="-0.55978">
        <ele>8.31</ele>
        <time>2016-03-23T18:57:10Z</time>
      </trkpt>
      <trkpt lat="44.83924" lon="-0.55977">
        <ele>8.31</ele>
        <time>2016-03-23T18:57:39Z</time>
      </trkpt>
      <trkpt lat="44.83924" lon="-0.55977">
        <ele>8.79</ele>
        <time>2016-03-23T18:57:53Z</time>
      </trkpt>
      <trkpt lat="44.83924" lon="-0.55976">
        <ele>8.79</ele>
        <time>2016-03-23T18:58:13Z</time>
      </trkpt>
      <trkpt lat="44.83925" lon="-0.55975">
        <ele>8.79</ele>
        <time>2016-03-23T18:58:35Z</time>
      </trkpt>
      <trkpt lat="44.83924" lon="-0.55976">
        <ele>8.79</ele>
        <time>2016-03-23T18:58:58Z</time>
      </trkpt>
      <trkpt lat="44.83924" lon="-0.55977">
        <ele>8.31</ele>
        <time>2016-03-23T18:59:18Z</time>
      </trkpt>
      <trkpt lat="44.83924" lon="-0.55977">
        <ele>7.35</ele>
        <time>2016-03-23T18:59:39Z</time>
      </trkpt>
      <trkpt lat="44.83923" lon="-0.55977">
        <ele>6.87</ele>
        <time>2016-03-23T19:00:03Z</time>
      </trkpt>
      <trkpt lat="44.83921" lon="-0.55973">
        <ele>6.87</ele>
        <time>2016-03-23T19:00:21Z</time>
      </trkpt>
      <trkpt lat="44.83918" lon="-0.5597">
        <ele>6.87</ele>
        <time>2016-03-23T19:00:27Z</time>
      </trkpt>
      <trkpt lat="44.83912" lon="-0.55963">
        <ele>6.87</ele>
        <time>2016-03-23T19:00:39Z</time>
      </trkpt>
      <trkpt lat="44.83909" lon="-0.55957">
        <ele>6.87</ele>
        <time>2016-03-23T19:00:48Z</time>
      </trkpt>
      <trkpt lat="44.839" lon="-0.55948">
        <ele>6.87</ele>
        <time>2016-03-23T19:00:59Z</time>
      </trkpt>
      <trkpt lat="44.83897" lon="-0.55946">
        <ele>6.87</ele>
        <time>2016-03-23T19:01:02Z</time>
      </trkpt>
      <trkpt lat="44.83889" lon="-0.55936">
        <ele>6.87</ele>
        <time>2016-03-23T19:01:15Z</time>
      </trkpt>
      <trkpt lat="44.8388" lon="-0.55925">
        <ele>8.31</ele>
        <time>2016-03-23T19:01:26Z</time>
      </trkpt>
      <trkpt lat="44.83879" lon="-0.55924">
        <ele>8.31</ele>
        <time>2016-03-23T19:01:27Z</time>
      </trkpt>
      <trkpt lat="44.83877" lon="-0.55922">
        <ele>8.31</ele>
        <time>2016-03-23T19:01:29Z</time>
      </trkpt>
      <trkpt lat="44.83867" lon="-0.55911">
        <ele>8.31</ele>
        <time>2016-03-23T19:01:40Z</time>
      </trkpt>
      <trkpt lat="44.83864" lon="-0.55906">
        <ele>8.31</ele>
        <time>2016-03-23T19:01:44Z</time>
      </trkpt>
      <trkpt lat="44.83859" lon="-0.55899">
        <ele>8.79</ele>
        <time>2016-03-23T19:01:58Z</time>
      </trkpt>
      <trkpt lat="44.83858" lon="-0.55897">
        <ele>8.79</ele>
        <time>2016-03-23T19:02:14Z</time>
      </trkpt>
      <trkpt lat="44.83853" lon="-0.55888">
        <ele>8.79</ele>
        <time>2016-03-23T19:02:27Z</time>
      </trkpt>
      <trkpt lat="44.83851" lon="-0.55885">
        <ele>7.35</ele>
        <time>2016-03-23T19:02:29Z</time>
      </trkpt>
      <trkpt lat="44.83845" lon="-0.55869">
        <ele>7.35</ele>
        <time>2016-03-23T19:02:43Z</time>
      </trkpt>
      <trkpt lat="44.83834" lon="-0.55852">
        <ele>7.35</ele>
        <time>2016-03-23T19:02:58Z</time>
      </trkpt>
      <trkpt lat="44.83833" lon="-0.55852">
        <ele>7.35</ele>
        <time>2016-03-23T19:02:59Z</time>
      </trkpt>
      <trkpt lat="44.83827" lon="-0.55846">
        <ele>6.87</ele>
        <time>2016-03-23T19:03:06Z</time>
      </trkpt>
      <trkpt lat="44.83824" lon="-0.5584">
        <ele>6.87</ele>
        <time>2016-03-23T19:03:11Z</time>
      </trkpt>
      <trkpt lat="44.83815" lon="-0.55824">
        <ele>6.87</ele>
        <time>2016-03-23T19:03:23Z</time>
      </trkpt>
      <trkpt lat="44.8381" lon="-0.55819">
        <ele>6.87</ele>
        <time>2016-03-23T19:03:30Z</time>
      </trkpt>
      <trkpt lat="44.83806" lon="-0.5582">
        <ele>6.87</ele>
        <time>2016-03-23T19:03:34Z</time>
      </trkpt>
      <trkpt lat="44.83797" lon="-0.55808">
        <ele>6.87</ele>
        <time>2016-03-23T19:03:46Z</time>
      </trkpt>
      <trkpt lat="44.83786" lon="-0.55791">
        <ele>6.87</ele>
        <time>2016-03-23T19:04:00Z</time>
      </trkpt>
      <trkpt lat="44.83777" lon="-0.55777">
        <ele>6.87</ele>
        <time>2016-03-23T19:04:12Z</time>
      </trkpt>
      <trkpt lat="44.83766" lon="-0.55759">
        <ele>6.87</ele>
        <time>2016-03-23T19:04:26Z</time>
      </trkpt>
      <trkpt lat="44.83764" lon="-0.55758">
        <ele>6.87</ele>
        <time>2016-03-23T19:04:28Z</time>
      </trkpt>
      <trkpt lat="44.83761" lon="-0.55757">
        <ele>6.87</ele>
        <time>2016-03-23T19:04:31Z</time>
      </trkpt>
      <trkpt lat="44.8375" lon="-0.55759">
        <ele>6.87</ele>
        <time>2016-03-23T19:04:42Z</time>
      </trkpt>
      <trkpt lat="44.83736" lon="-0.55742">
        <ele>7.83</ele>
        <time>2016-03-23T19:04:58Z</time>
      </trkpt>
      <trkpt lat="44.8373" lon="-0.55731">
        <ele>6.87</ele>
        <time>2016-03-23T19:05:06Z</time>
      </trkpt>
      <trkpt lat="44.83718" lon="-0.55713">
        <ele>6.39</ele>
        <time>2016-03-23T19:05:21Z</time>
      </trkpt>
      <trkpt lat="44.83708" lon="-0.55693">
        <ele>6.39</ele>
        <time>2016-03-23T19:05:36Z</time>
      </trkpt>
      <trkpt lat="44.837" lon="-0.55674">
        <ele>7.83</ele>
        <time>2016-03-23T19:05:49Z</time>
      </trkpt>
      <trkpt lat="44.83693" lon="-0.55657">
        <ele>6.39</ele>
        <time>2016-03-23T19:06:02Z</time>
      </trkpt>
      <trkpt lat="44.83683" lon="-0.55639">
        <ele>7.83</ele>
        <time>2016-03-23T19:06:16Z</time>
      </trkpt>
      <trkpt lat="44.83683" lon="-0.55638">
        <ele>7.83</ele>
        <time>2016-03-23T19:06:17Z</time>
      </trkpt>
      <trkpt lat="44.8367" lon="-0.55624">
        <ele>6.39</ele>
        <time>2016-03-23T19:06:32Z</time>
      </trkpt>
      <trkpt lat="44.8367" lon="-0.55623">
        <ele>7.83</ele>
        <time>2016-03-23T19:06:33Z</time>
      </trkpt>
      <trkpt lat="44.83671" lon="-0.55616">
        <ele>7.83</ele>
        <time>2016-03-23T19:06:38Z</time>
      </trkpt>
      <trkpt lat="44.83671" lon="-0.55606">
        <ele>7.35</ele>
        <time>2016-03-23T19:06:46Z</time>
      </trkpt>
      <trkpt lat="44.8366" lon="-0.55588">
        <ele>7.83</ele>
        <time>2016-03-23T19:07:01Z</time>
      </trkpt>
      <trkpt lat="44.83651" lon="-0.55574">
        <ele>7.83</ele>
        <time>2016-03-23T19:07:13Z</time>
      </trkpt>
      <trkpt lat="44.83641" lon="-0.55558">
        <ele>7.35</ele>
        <time>2016-03-23T19:07:26Z</time>
      </trkpt>
      <trkpt lat="44.83631" lon="-0.55542">
        <ele>7.83</ele>
        <time>2016-03-23T19:07:40Z</time>
      </trkpt>
      <trkpt lat="44.83626" lon="-0.55534">
        <ele>7.83</ele>
        <time>2016-03-23T19:07:46Z</time>
      </trkpt>
      <trkpt lat="44.83615" lon="-0.55516">
        <ele>7.83</ele>
        <time>2016-03-23T19:08:01Z</time>
      </trkpt>
      <trkpt lat="44.83605" lon="-0.55499">
        <ele>7.83</ele>
        <time>2016-03-23T19:08:14Z</time>
      </trkpt>
      <trkpt lat="44.83596" lon="-0.55484">
        <ele>7.83</ele>
        <time>2016-03-23T19:08:27Z</time>
      </trkpt>
      <trkpt lat="44.83592" lon="-0.55477">
        <ele>7.83</ele>
        <time>2016-03-23T19:08:32Z</time>
      </trkpt>
      <trkpt lat="44.8358" lon="-0.55457">
        <ele>7.83</ele>
        <time>2016-03-23T19:08:48Z</time>
      </trkpt>
      <trkpt lat="44.8357" lon="-0.55443">
        <ele>7.83</ele>
        <time>2016-03-23T19:09:01Z</time>
      </trkpt>
      <trkpt lat="44.8356" lon="-0.55427">
        <ele>6.87</ele>
        <time>2016-03-23T19:09:15Z</time>
      </trkpt>
      <trkpt lat="44.83548" lon="-0.5541">
        <ele>7.83</ele>
        <time>2016-03-23T19:09:30Z</time>
      </trkpt>
      <trkpt lat="44.83538" lon="-0.55393">
        <ele>7.83</ele>
        <time>2016-03-23T19:09:44Z</time>
      </trkpt>
      <trkpt lat="44.83526" lon="-0.55375">
        <ele>7.83</ele>
        <time>2016-03-23T19:10:00Z</time>
      </trkpt>
      <trkpt lat="44.83521" lon="-0.55366">
        <ele>6.87</ele>
        <time>2016-03-23T19:10:08Z</time>
      </trkpt>
      <trkpt lat="44.83511" lon="-0.55349">
        <ele>7.83</ele>
        <time>2016-03-23T19:10:23Z</time>
      </trkpt>
      <trkpt lat="44.83506" lon="-0.55342">
        <ele>6.39</ele>
        <time>2016-03-23T19:10:30Z</time>
      </trkpt>
      <trkpt lat="44.83504" lon="-0.55347">
        <ele>7.83</ele>
        <time>2016-03-23T19:10:35Z</time>
      </trkpt>
      <trkpt lat="44.83493" lon="-0.55348">
        <ele>7.35</ele>
        <time>2016-03-23T19:10:45Z</time>
      </trkpt>
      <trkpt lat="44.83482" lon="-0.55334">
        <ele>7.83</ele>
        <time>2016-03-23T19:10:59Z</time>
      </trkpt>
      <trkpt lat="44.83474" lon="-0.55318">
        <ele>8.31</ele>
        <time>2016-03-23T19:11:14Z</time>
      </trkpt>
      <trkpt lat="44.83474" lon="-0.55301">
        <ele>6.87</ele>
        <time>2016-03-23T19:11:24Z</time>
      </trkpt>
      <trkpt lat="44.83475" lon="-0.55293">
        <ele>6.87</ele>
        <time>2016-03-23T19:11:30Z</time>
      </trkpt>
      <trkpt lat="44.8347" lon="-0.55275">
        <ele>6.87</ele>
        <time>2016-03-23T19:11:46Z</time>
      </trkpt>
      <trkpt lat="44.83459" lon="-0.55253">
        <ele>6.87</ele>
        <time>2016-03-23T19:12:04Z</time>
      </trkpt>
      <trkpt lat="44.83448" lon="-0.55235">
        <ele>6.87</ele>
        <time>2016-03-23T19:12:21Z</time>
      </trkpt>
      <trkpt lat="44.83443" lon="-0.55235">
        <ele>6.87</ele>
        <time>2016-03-23T19:12:36Z</time>
      </trkpt>
      <trkpt lat="44.83443" lon="-0.55234">
        <ele>6.87</ele>
        <time>2016-03-23T19:12:53Z</time>
      </trkpt>
      <trkpt lat="44.8344" lon="-0.55234">
        <ele>6.87</ele>
        <time>2016-03-23T19:13:19Z</time>
      </trkpt>
      <trkpt lat="44.83441" lon="-0.55236">
        <ele>6.39</ele>
        <time>2016-03-23T19:13:57Z</time>
      </trkpt>
      <trkpt lat="44.83438" lon="-0.5524">
        <ele>6.39</ele>
        <time>2016-03-23T19:14:34Z</time>
      </trkpt>
      <trkpt lat="44.83439" lon="-0.55233">
        <ele>7.83</ele>
        <time>2016-03-23T19:14:57Z</time>
      </trkpt>
      <trkpt lat="44.83439" lon="-0.55231">
        <ele>10.23</ele>
        <time>2016-03-23T19:15:03Z</time>
      </trkpt>
      <trkpt lat="44.83436" lon="-0.55228">
        <ele>12.63</ele>
        <time>2016-03-23T19:15:20Z</time>
      </trkpt>
      <trkpt lat="44.83433" lon="-0.55226">
        <ele>14.08</ele>
        <time>2016-03-23T19:15:33Z</time>
      </trkpt>
      <trkpt lat="44.83423" lon="-0.55237">
        <ele>14.08</ele>
        <time>2016-03-23T19:15:48Z</time>
      </trkpt>
      <trkpt lat="44.83412" lon="-0.55248">
        <ele>13.6</ele>
        <time>2016-03-23T19:16:03Z</time>
      </trkpt>
      <trkpt lat="44.83397" lon="-0.55259">
        <ele>14.08</ele>
        <time>2016-03-23T19:16:19Z</time>
      </trkpt>
      <trkpt lat="44.83384" lon="-0.55266">
        <ele>14.56</ele>
        <time>2016-03-23T19:16:35Z</time>
      </trkpt>
      <trkpt lat="44.83374" lon="-0.55277">
        <ele>14.56</ele>
        <time>2016-03-23T19:16:47Z</time>
      </trkpt>
      <trkpt lat="44.83364" lon="-0.55284">
        <ele>14.56</ele>
        <time>2016-03-23T19:17:00Z</time>
      </trkpt>
      <trkpt lat="44.83351" lon="-0.55298">
        <ele>14.08</ele>
        <time>2016-03-23T19:17:16Z</time>
      </trkpt>
      <trkpt lat="44.83347" lon="-0.55302">
        <ele>14.08</ele>
        <time>2016-03-23T19:17:20Z</time>
      </trkpt>
      <trkpt lat="44.83335" lon="-0.55311">
        <ele>14.08</ele>
        <time>2016-03-23T19:17:35Z</time>
      </trkpt>
      <trkpt lat="44.83329" lon="-0.55315">
        <ele>12.63</ele>
        <time>2016-03-23T19:17:42Z</time>
      </trkpt>
      <trkpt lat="44.83312" lon="-0.55333">
        <ele>13.6</ele>
        <time>2016-03-23T19:17:59Z</time>
      </trkpt>
      <trkpt lat="44.83297" lon="-0.55347">
        <ele>13.6</ele>
        <time>2016-03-23T19:18:13Z</time>
      </trkpt>
      <trkpt lat="44.83283" lon="-0.55356">
        <ele>13.12</ele>
        <time>2016-03-23T19:18:29Z</time>
      </trkpt>
      <trkpt lat="44.83274" lon="-0.55366">
        <ele>13.12</ele>
        <time>2016-03-23T19:18:42Z</time>
      </trkpt>
      <trkpt lat="44.83257" lon="-0.55381">
        <ele>12.63</ele>
        <time>2016-03-23T19:18:58Z</time>
      </trkpt>
      <trkpt lat="44.83252" lon="-0.55389">
        <ele>11.19</ele>
        <time>2016-03-23T19:19:04Z</time>
      </trkpt>
      <trkpt lat="44.83238" lon="-0.55404">
        <ele>11.19</ele>
        <time>2016-03-23T19:19:19Z</time>
      </trkpt>
      <trkpt lat="44.83221" lon="-0.55412">
        <ele>12.15</ele>
        <time>2016-03-23T19:19:33Z</time>
      </trkpt>
      <trkpt lat="44.83218" lon="-0.55413">
        <ele>12.15</ele>
        <time>2016-03-23T19:19:35Z</time>
      </trkpt>
      <trkpt lat="44.83211" lon="-0.55417">
        <ele>11.19</ele>
        <time>2016-03-23T19:19:40Z</time>
      </trkpt>
      <trkpt lat="44.83201" lon="-0.55422">
        <ele>10.23</ele>
        <time>2016-03-23T19:19:47Z</time>
      </trkpt>
      <trkpt lat="44.83191" lon="-0.55443">
        <ele>11.19</ele>
        <time>2016-03-23T19:19:58Z</time>
      </trkpt>
      <trkpt lat="44.83179" lon="-0.5546">
        <ele>10.71</ele>
        <time>2016-03-23T19:20:12Z</time>
      </trkpt>
      <trkpt lat="44.83178" lon="-0.5546">
        <ele>9.27</ele>
        <time>2016-03-23T19:20:14Z</time>
      </trkpt>
      <trkpt lat="44.83164" lon="-0.55476">
        <ele>8.79</ele>
        <time>2016-03-23T19:20:30Z</time>
      </trkpt>
      <trkpt lat="44.83149" lon="-0.55496">
        <ele>8.31</ele>
        <time>2016-03-23T19:20:46Z</time>
      </trkpt>
      <trkpt lat="44.83133" lon="-0.55517">
        <ele>7.35</ele>
        <time>2016-03-23T19:21:02Z</time>
      </trkpt>
      <trkpt lat="44.83122" lon="-0.55529">
        <ele>7.35</ele>
        <time>2016-03-23T19:21:15Z</time>
      </trkpt>
      <trkpt lat="44.83106" lon="-0.55544">
        <ele>6.39</ele>
        <time>2016-03-23T19:21:31Z</time>
      </trkpt>
      <trkpt lat="44.83091" lon="-0.55559">
        <ele>5.42</ele>
        <time>2016-03-23T19:21:46Z</time>
      </trkpt>
      <trkpt lat="44.83077" lon="-0.5558">
        <ele>4.46</ele>
        <time>2016-03-23T19:22:01Z</time>
      </trkpt>
      <trkpt lat="44.83069" lon="-0.55606">
        <ele>3.5</ele>
        <time>2016-03-23T19:22:17Z</time>
      </trkpt>
      <trkpt lat="44.83072" lon="-0.5561">
        <ele>3.02</ele>
        <time>2016-03-23T19:22:37Z</time>
      </trkpt>
      <trkpt lat="44.83071" lon="-0.55611">
        <ele>3.02</ele>
        <time>2016-03-23T19:22:58Z</time>
      </trkpt>
      <trkpt lat="44.83071" lon="-0.55614">
        <ele>3.02</ele>
        <time>2016-03-23T19:23:15Z</time>
      </trkpt>
      <trkpt lat="44.8307" lon="-0.55613">
        <ele>3.02</ele>
        <time>2016-03-23T19:23:42Z</time>
      </trkpt>
      <trkpt lat="44.83071" lon="-0.55613">
        <ele>3.02</ele>
        <time>2016-03-23T19:24:06Z</time>
      </trkpt>
      <trkpt lat="44.83072" lon="-0.55612">
        <ele>3.02</ele>
        <time>2016-03-23T19:24:30Z</time>
      </trkpt>
      <trkpt lat="44.83074" lon="-0.55608">
        <ele>2.54</ele>
        <time>2016-03-23T19:24:51Z</time>
      </trkpt>
      <trkpt lat="44.83075" lon="-0.55606">
        <ele>2.54</ele>
        <time>2016-03-23T19:24:53Z</time>
      </trkpt>
      <trkpt lat="44.83082" lon="-0.55592">
        <ele>1.58</ele>
        <time>2016-03-23T19:25:07Z</time>
      </trkpt>
      <trkpt lat="44.83087" lon="-0.55582">
        <ele>0.62</ele>
        <time>2016-03-23T19:25:19Z</time>
      </trkpt>
      <trkpt lat="44.83088" lon="-0.55576">
        <ele>0.62</ele>
        <time>2016-03-23T19:25:32Z</time>
      </trkpt>
      <trkpt lat="44.83094" lon="-0.55568">
        <ele>-2.27</ele>
        <time>2016-03-23T19:25:49Z</time>
      </trkpt>
      <trkpt lat="44.83094" lon="-0.55565">
        <ele>-2.75</ele>
        <time>2016-03-23T19:25:54Z</time>
      </trkpt>
      <trkpt lat="44.83086" lon="-0.55547">
        <ele>-2.75</ele>
        <time>2016-03-23T19:26:08Z</time>
      </trkpt>
      <trkpt lat="44.83082" lon="-0.55543">
        <ele>-2.75</ele>
        <time>2016-03-23T19:26:12Z</time>
      </trkpt>
      <trkpt lat="44.83073" lon="-0.55517">
        <ele>-2.75</ele>
        <time>2016-03-23T19:26:26Z</time>
      </trkpt>
      <trkpt lat="44.83066" lon="-0.55509">
        <ele>-2.27</ele>
        <time>2016-03-23T19:26:37Z</time>
      </trkpt>
      <trkpt lat="44.83061" lon="-0.55516">
        <ele>-2.27</ele>
        <time>2016-03-23T19:26:46Z</time>
      </trkpt>
      <trkpt lat="44.83051" lon="-0.55531">
        <ele>-2.27</ele>
        <time>2016-03-23T19:27:00Z</time>
      </trkpt>
      <trkpt lat="44.83043" lon="-0.55545">
        <ele>-2.75</ele>
        <time>2016-03-23T19:27:15Z</time>
      </trkpt>
      <trkpt lat="44.8304" lon="-0.55556">
        <ele>-1.3</ele>
        <time>2016-03-23T19:27:22Z</time>
      </trkpt>
      <trkpt lat="44.83025" lon="-0.55576">
        <ele>-1.3</ele>
        <time>2016-03-23T19:27:35Z</time>
      </trkpt>
      <trkpt lat="44.83019" lon="-0.55582">
        <ele>-1.3</ele>
        <time>2016-03-23T19:27:41Z</time>
      </trkpt>
      <trkpt lat="44.83012" lon="-0.55601">
        <ele>-1.3</ele>
        <time>2016-03-23T19:27:55Z</time>
      </trkpt>
      <trkpt lat="44.83009" lon="-0.55613">
        <ele>-0.82</ele>
        <time>2016-03-23T19:28:07Z</time>
      </trkpt>
      <trkpt lat="44.83012" lon="-0.55623">
        <ele>-0.82</ele>
        <time>2016-03-23T19:28:16Z</time>
      </trkpt>
      <trkpt lat="44.83019" lon="-0.55639">
        <ele>-0.34</ele>
        <time>2016-03-23T19:28:28Z</time>
      </trkpt>
      <trkpt lat="44.8303" lon="-0.55657">
        <ele>-0.34</ele>
        <time>2016-03-23T19:28:42Z</time>
      </trkpt>
      <trkpt lat="44.83035" lon="-0.55674">
        <ele>-1.3</ele>
        <time>2016-03-23T19:28:55Z</time>
      </trkpt>
      <trkpt lat="44.83038" lon="-0.55684">
        <ele>-1.3</ele>
        <time>2016-03-23T19:29:03Z</time>
      </trkpt>
      <trkpt lat="44.8305" lon="-0.55701">
        <ele>-1.3</ele>
        <time>2016-03-23T19:29:17Z</time>
      </trkpt>
      <trkpt lat="44.83061" lon="-0.55715">
        <ele>-0.34</ele>
        <time>2016-03-23T19:29:30Z</time>
      </trkpt>
      <trkpt lat="44.83063" lon="-0.55716">
        <ele>-1.3</ele>
        <time>2016-03-23T19:29:32Z</time>
      </trkpt>
      <trkpt lat="44.83068" lon="-0.55721">
        <ele>-0.34</ele>
        <time>2016-03-23T19:29:37Z</time>
      </trkpt>
      <trkpt lat="44.83078" lon="-0.55733">
        <ele>0.14</ele>
        <time>2016-03-23T19:29:49Z</time>
      </trkpt>
      <trkpt lat="44.83084" lon="-0.55741">
        <ele>-1.3</ele>
        <time>2016-03-23T19:29:56Z</time>
      </trkpt>
      <trkpt lat="44.83094" lon="-0.55753">
        <ele>-1.3</ele>
        <time>2016-03-23T19:30:10Z</time>
      </trkpt>
      <trkpt lat="44.83105" lon="-0.55764">
        <ele>0.14</ele>
        <time>2016-03-23T19:30:23Z</time>
      </trkpt>
      <trkpt lat="44.83119" lon="-0.55774">
        <ele>0.14</ele>
        <time>2016-03-23T19:30:37Z</time>
      </trkpt>
      <trkpt lat="44.83131" lon="-0.55784">
        <ele>0.14</ele>
        <time>2016-03-23T19:30:49Z</time>
      </trkpt>
      <trkpt lat="44.83139" lon="-0.55793">
        <ele>-0.82</ele>
        <time>2016-03-23T19:30:58Z</time>
      </trkpt>
      <trkpt lat="44.83144" lon="-0.55811">
        <ele>-0.82</ele>
        <time>2016-03-23T19:31:12Z</time>
      </trkpt>
      <trkpt lat="44.83154" lon="-0.55823">
        <ele>-0.82</ele>
        <time>2016-03-23T19:31:25Z</time>
      </trkpt>
      <trkpt lat="44.83161" lon="-0.55836">
        <ele>-0.82</ele>
        <time>2016-03-23T19:31:38Z</time>
      </trkpt>
      <trkpt lat="44.8316" lon="-0.55838">
        <ele>-0.82</ele>
        <time>2016-03-23T19:31:56Z</time>
      </trkpt>
      <trkpt lat="44.8316" lon="-0.55838">
        <ele>-0.34</ele>
        <time>2016-03-23T19:32:15Z</time>
      </trkpt>
      <trkpt lat="44.83163" lon="-0.55843">
        <ele>-1.3</ele>
        <time>2016-03-23T19:32:20Z</time>
      </trkpt>
      <trkpt lat="44.83168" lon="-0.5585">
        <ele>-0.82</ele>
        <time>2016-03-23T19:32:26Z</time>
      </trkpt>
      <trkpt lat="44.83171" lon="-0.55858">
        <ele>-0.82</ele>
        <time>2016-03-23T19:32:40Z</time>
      </trkpt>
      <trkpt lat="44.83176" lon="-0.5586">
        <ele>-0.82</ele>
        <time>2016-03-23T19:32:51Z</time>
      </trkpt>
      <trkpt lat="44.83192" lon="-0.55871">
        <ele>-0.82</ele>
        <time>2016-03-23T19:33:06Z</time>
      </trkpt>
      <trkpt lat="44.83194" lon="-0.55874">
        <ele>0.62</ele>
        <time>2016-03-23T19:33:09Z</time>
      </trkpt>
      <trkpt lat="44.83197" lon="-0.55878">
        <ele>-1.3</ele>
        <time>2016-03-23T19:33:12Z</time>
      </trkpt>
      <trkpt lat="44.83199" lon="-0.55879">
        <ele>-1.3</ele>
        <time>2016-03-23T19:33:15Z</time>
      </trkpt>
      <trkpt lat="44.83203" lon="-0.55878">
        <ele>-1.3</ele>
        <time>2016-03-23T19:33:18Z</time>
      </trkpt>
      <trkpt lat="44.83216" lon="-0.55864">
        <ele>-1.3</ele>
        <time>2016-03-23T19:33:31Z</time>
      </trkpt>
      <trkpt lat="44.83227" lon="-0.5585">
        <ele>-0.82</ele>
        <time>2016-03-23T19:33:44Z</time>
      </trkpt>
      <trkpt lat="44.83238" lon="-0.55837">
        <ele>-0.82</ele>
        <time>2016-03-23T19:33:58Z</time>
      </trkpt>
      <trkpt lat="44.83247" lon="-0.55839">
        <ele>-0.82</ele>
        <time>2016-03-23T19:34:12Z</time>
      </trkpt>
      <trkpt lat="44.83253" lon="-0.5585">
        <ele>-0.82</ele>
        <time>2016-03-23T19:34:24Z</time>
      </trkpt>
      <trkpt lat="44.83256" lon="-0.55854">
        <ele>-0.82</ele>
        <time>2016-03-23T19:34:28Z</time>
      </trkpt>
      <trkpt lat="44.83259" lon="-0.55858">
        <ele>-0.82</ele>
        <time>2016-03-23T19:34:32Z</time>
      </trkpt>
      <trkpt lat="44.8327" lon="-0.55873">
        <ele>-0.82</ele>
        <time>2016-03-23T19:34:46Z</time>
      </trkpt>
      <trkpt lat="44.83278" lon="-0.55886">
        <ele>-0.82</ele>
        <time>2016-03-23T19:34:58Z</time>
      </trkpt>
      <trkpt lat="44.83288" lon="-0.55901">
        <ele>-0.34</ele>
        <time>2016-03-23T19:35:12Z</time>
      </trkpt>
      <trkpt lat="44.83298" lon="-0.55918">
        <ele>-0.34</ele>
        <time>2016-03-23T19:35:27Z</time>
      </trkpt>
      <trkpt lat="44.83305" lon="-0.55932">
        <ele>-0.34</ele>
        <time>2016-03-23T19:35:40Z</time>
      </trkpt>
      <trkpt lat="44.83309" lon="-0.55938">
        <ele>-0.34</ele>
        <time>2016-03-23T19:35:46Z</time>
      </trkpt>
      <trkpt lat="44.83315" lon="-0.55951">
        <ele>-0.34</ele>
        <time>2016-03-23T19:35:57Z</time>
      </trkpt>
      <trkpt lat="44.83326" lon="-0.55968">
        <ele>-0.34</ele>
        <time>2016-03-23T19:36:13Z</time>
      </trkpt>
      <trkpt lat="44.83329" lon="-0.55973">
        <ele>-0.34</ele>
        <time>2016-03-23T19:36:18Z</time>
      </trkpt>
      <trkpt lat="44.8334" lon="-0.55989">
        <ele>-0.34</ele>
        <time>2016-03-23T19:36:32Z</time>
      </trkpt>
      <trkpt lat="44.8335" lon="-0.56004">
        <ele>-0.34</ele>
        <time>2016-03-23T19:36:46Z</time>
      </trkpt>
      <trkpt lat="44.83358" lon="-0.56017">
        <ele>-0.34</ele>
        <time>2016-03-23T19:36:58Z</time>
      </trkpt>
      <trkpt lat="44.83367" lon="-0.56032">
        <ele>-0.34</ele>
        <time>2016-03-23T19:37:12Z</time>
      </trkpt>
      <trkpt lat="44.83375" lon="-0.56045">
        <ele>-1.3</ele>
        <time>2016-03-23T19:37:23Z</time>
      </trkpt>
      <trkpt lat="44.83383" lon="-0.56059">
        <ele>0.14</ele>
        <time>2016-03-23T19:37:35Z</time>
      </trkpt>
      <trkpt lat="44.83384" lon="-0.5606">
        <ele>0.14</ele>
        <time>2016-03-23T19:37:36Z</time>
      </trkpt>
      <trkpt lat="44.83391" lon="-0.56071">
        <ele>0.14</ele>
        <time>2016-03-23T19:37:46Z</time>
      </trkpt>
      <trkpt lat="44.83396" lon="-0.56078">
        <ele>-1.3</ele>
        <time>2016-03-23T19:37:52Z</time>
      </trkpt>
      <trkpt lat="44.83405" lon="-0.56092">
        <ele>-0.34</ele>
        <time>2016-03-23T19:38:04Z</time>
      </trkpt>
      <trkpt lat="44.83413" lon="-0.56106">
        <ele>-0.34</ele>
        <time>2016-03-23T19:38:16Z</time>
      </trkpt>
      <trkpt lat="44.83422" lon="-0.5612">
        <ele>-0.34</ele>
        <time>2016-03-23T19:38:29Z</time>
      </trkpt>
      <trkpt lat="44.8343" lon="-0.56131">
        <ele>0.14</ele>
        <time>2016-03-23T19:38:40Z</time>
      </trkpt>
      <trkpt lat="44.83435" lon="-0.56139">
        <ele>0.14</ele>
        <time>2016-03-23T19:38:47Z</time>
      </trkpt>
      <trkpt lat="44.83443" lon="-0.56152">
        <ele>-0.34</ele>
        <time>2016-03-23T19:39:00Z</time>
      </trkpt>
      <trkpt lat="44.83451" lon="-0.56166">
        <ele>0.14</ele>
        <time>2016-03-23T19:39:13Z</time>
      </trkpt>
      <trkpt lat="44.83459" lon="-0.5618">
        <ele>-1.3</ele>
        <time>2016-03-23T19:39:25Z</time>
      </trkpt>
      <trkpt lat="44.8346" lon="-0.56181">
        <ele>-1.3</ele>
        <time>2016-03-23T19:39:26Z</time>
      </trkpt>
      <trkpt lat="44.8347" lon="-0.56196">
        <ele>-1.3</ele>
        <time>2016-03-23T19:39:39Z</time>
      </trkpt>
      <trkpt lat="44.8348" lon="-0.5621">
        <ele>-0.82</ele>
        <time>2016-03-23T19:39:52Z</time>
      </trkpt>
      <trkpt lat="44.83487" lon="-0.56225">
        <ele>-0.82</ele>
        <time>2016-03-23T19:40:04Z</time>
      </trkpt>
      <trkpt lat="44.83497" lon="-0.56241">
        <ele>-0.82</ele>
        <time>2016-03-23T19:40:17Z</time>
      </trkpt>
      <trkpt lat="44.83507" lon="-0.56258">
        <ele>-0.82</ele>
        <time>2016-03-23T19:40:30Z</time>
      </trkpt>
      <trkpt lat="44.83515" lon="-0.56271">
        <ele>-0.82</ele>
        <time>2016-03-23T19:40:41Z</time>
      </trkpt>
      <trkpt lat="44.83521" lon="-0.56287">
        <ele>-0.82</ele>
        <time>2016-03-23T19:40:55Z</time>
      </trkpt>
      <trkpt lat="44.83527" lon="-0.56305">
        <ele>-0.82</ele>
        <time>2016-03-23T19:41:08Z</time>
      </trkpt>
      <trkpt lat="44.83533" lon="-0.56324">
        <ele>-0.82</ele>
        <time>2016-03-23T19:41:22Z</time>
      </trkpt>
      <trkpt lat="44.83542" lon="-0.56335">
        <ele>-0.82</ele>
        <time>2016-03-23T19:41:34Z</time>
      </trkpt>
      <trkpt lat="44.83552" lon="-0.56347">
        <ele>-0.82</ele>
        <time>2016-03-23T19:41:47Z</time>
      </trkpt>
      <trkpt lat="44.83564" lon="-0.56358">
        <ele>-0.82</ele>
        <time>2016-03-23T19:42:01Z</time>
      </trkpt>
      <trkpt lat="44.83576" lon="-0.56371">
        <ele>-1.3</ele>
        <time>2016-03-23T19:42:15Z</time>
      </trkpt>
      <trkpt lat="44.83587" lon="-0.56384">
        <ele>-1.3</ele>
        <time>2016-03-23T19:42:28Z</time>
      </trkpt>
      <trkpt lat="44.83598" lon="-0.56397">
        <ele>-2.27</ele>
        <time>2016-03-23T19:42:41Z</time>
      </trkpt>
      <trkpt lat="44.83601" lon="-0.564">
        <ele>-1.79</ele>
        <time>2016-03-23T19:42:44Z</time>
      </trkpt>
      <trkpt lat="44.8361" lon="-0.56409">
        <ele>-1.3</ele>
        <time>2016-03-23T19:42:53Z</time>
      </trkpt>
      <trkpt lat="44.83616" lon="-0.56417">
        <ele>-1.3</ele>
        <time>2016-03-23T19:43:01Z</time>
      </trkpt>
      <trkpt lat="44.83629" lon="-0.5643">
        <ele>-2.27</ele>
        <time>2016-03-23T19:43:15Z</time>
      </trkpt>
      <trkpt lat="44.83642" lon="-0.56442">
        <ele>-2.27</ele>
        <time>2016-03-23T19:43:29Z</time>
      </trkpt>
      <trkpt lat="44.83653" lon="-0.56453">
        <ele>-2.75</ele>
        <time>2016-03-23T19:43:41Z</time>
      </trkpt>
      <trkpt lat="44.83665" lon="-0.56466">
        <ele>-2.27</ele>
        <time>2016-03-23T19:43:54Z</time>
      </trkpt>
      <trkpt lat="44.83676" lon="-0.56477">
        <ele>-2.27</ele>
        <time>2016-03-23T19:44:06Z</time>
      </trkpt>
      <trkpt lat="44.83679" lon="-0.56479">
        <ele>-3.71</ele>
        <time>2016-03-23T19:44:09Z</time>
      </trkpt>
      <trkpt lat="44.8369" lon="-0.56492">
        <ele>-2.27</ele>
        <time>2016-03-23T19:44:22Z</time>
      </trkpt>
      <trkpt lat="44.83693" lon="-0.56494">
        <ele>-2.27</ele>
        <time>2016-03-23T19:44:26Z</time>
      </trkpt>
      <trkpt lat="44.83698" lon="-0.565">
        <ele>-2.27</ele>
        <time>2016-03-23T19:44:31Z</time>
      </trkpt>
      <trkpt lat="44.83703" lon="-0.56511">
        <ele>-2.75</ele>
        <time>2016-03-23T19:44:40Z</time>
      </trkpt>
      <trkpt lat="44.83705" lon="-0.56513">
        <ele>-2.75</ele>
        <time>2016-03-23T19:44:42Z</time>
      </trkpt>
      <trkpt lat="44.83707" lon="-0.56517">
        <ele>-3.71</ele>
        <time>2016-03-23T19:44:46Z</time>
      </trkpt>
      <trkpt lat="44.83721" lon="-0.56534">
        <ele>-3.71</ele>
        <time>2016-03-23T19:44:59Z</time>
      </trkpt>
      <trkpt lat="44.83732" lon="-0.56549">
        <ele>-3.71</ele>
        <time>2016-03-23T19:45:12Z</time>
      </trkpt>
      <trkpt lat="44.83738" lon="-0.56559">
        <ele>-2.75</ele>
        <time>2016-03-23T19:45:20Z</time>
      </trkpt>
      <trkpt lat="44.83743" lon="-0.56566">
        <ele>-2.75</ele>
        <time>2016-03-23T19:45:26Z</time>
      </trkpt>
      <trkpt lat="44.83745" lon="-0.56568">
        <ele>-2.75</ele>
        <time>2016-03-23T19:45:28Z</time>
      </trkpt>
      <trkpt lat="44.83755" lon="-0.56582">
        <ele>-2.75</ele>
        <time>2016-03-23T19:45:41Z</time>
      </trkpt>
      <trkpt lat="44.83767" lon="-0.56598">
        <ele>-3.23</ele>
        <time>2016-03-23T19:45:55Z</time>
      </trkpt>
      <trkpt lat="44.83772" lon="-0.56606">
        <ele>-3.23</ele>
        <time>2016-03-23T19:46:02Z</time>
      </trkpt>
      <trkpt lat="44.83776" lon="-0.56612">
        <ele>-3.23</ele>
        <time>2016-03-23T19:46:07Z</time>
      </trkpt>
      <trkpt lat="44.83784" lon="-0.56624">
        <ele>-1.79</ele>
        <time>2016-03-23T19:46:22Z</time>
      </trkpt>
      <trkpt lat="44.83785" lon="-0.56627">
        <ele>-1.79</ele>
        <time>2016-03-23T19:46:34Z</time>
      </trkpt>
      <trkpt lat="44.83792" lon="-0.56636">
        <ele>-1.79</ele>
        <time>2016-03-23T19:46:43Z</time>
      </trkpt>
      <trkpt lat="44.83803" lon="-0.56648">
        <ele>-1.3</ele>
        <time>2016-03-23T19:46:55Z</time>
      </trkpt>
      <trkpt lat="44.83814" lon="-0.56658">
        <ele>-1.3</ele>
        <time>2016-03-23T19:47:08Z</time>
      </trkpt>
      <trkpt lat="44.83816" lon="-0.56661">
        <ele>-1.3</ele>
        <time>2016-03-23T19:47:21Z</time>
      </trkpt>
      <trkpt lat="44.83816" lon="-0.56664">
        <ele>-1.3</ele>
        <time>2016-03-23T19:47:41Z</time>
      </trkpt>
      <trkpt lat="44.83814" lon="-0.56664">
        <ele>-0.82</ele>
        <time>2016-03-23T19:47:59Z</time>
      </trkpt>
      <trkpt lat="44.83812" lon="-0.56664">
        <ele>-0.82</ele>
        <time>2016-03-23T19:48:21Z</time>
      </trkpt>
      <trkpt lat="44.83813" lon="-0.56664">
        <ele>-0.82</ele>
        <time>2016-03-23T19:48:48Z</time>
      </trkpt>
      <trkpt lat="44.8381" lon="-0.56666">
        <ele>-0.82</ele>
        <time>2016-03-23T19:49:06Z</time>
      </trkpt>
      <trkpt lat="44.83816" lon="-0.56674">
        <ele>-2.27</ele>
        <time>2016-03-23T19:49:24Z</time>
      </trkpt>
      <trkpt lat="44.83825" lon="-0.56681">
        <ele>-2.27</ele>
        <time>2016-03-23T19:49:36Z</time>
      </trkpt>
      <trkpt lat="44.83832" lon="-0.56688">
        <ele>-0.82</ele>
        <time>2016-03-23T19:49:47Z</time>
      </trkpt>
      <trkpt lat="44.83836" lon="-0.56686">
        <ele>-0.82</ele>
        <time>2016-03-23T19:50:04Z</time>
      </trkpt>
      <trkpt lat="44.83837" lon="-0.56686">
        <ele>-0.82</ele>
        <time>2016-03-23T19:50:29Z</time>
      </trkpt>
      <trkpt lat="44.83835" lon="-0.56688">
        <ele>-0.82</ele>
        <time>2016-03-23T19:50:51Z</time>
      </trkpt>
      <trkpt lat="44.83844" lon="-0.56696">
        <ele>-0.82</ele>
        <time>2016-03-23T19:51:07Z</time>
      </trkpt>
      <trkpt lat="44.8385" lon="-0.56696">
        <ele>-0.82</ele>
        <time>2016-03-23T19:51:16Z</time>
      </trkpt>
      <trkpt lat="44.83855" lon="-0.56693">
        <ele>-0.82</ele>
        <time>2016-03-23T19:51:20Z</time>
      </trkpt>
      <trkpt lat="44.83865" lon="-0.5669">
        <ele>-1.79</ele>
        <time>2016-03-23T19:51:33Z</time>
      </trkpt>
      <trkpt lat="44.83876" lon="-0.56694">
        <ele>-1.79</ele>
        <time>2016-03-23T19:51:45Z</time>
      </trkpt>
      <trkpt lat="44.83891" lon="-0.56702">
        <ele>-1.79</ele>
        <time>2016-03-23T19:51:59Z</time>
      </trkpt>
      <trkpt lat="44.83894" lon="-0.56704">
        <ele>-0.34</ele>
        <time>2016-03-23T19:52:02Z</time>
      </trkpt>
      <trkpt lat="44.83906" lon="-0.56714">
        <ele>-0.34</ele>
        <time>2016-03-23T19:52:15Z</time>
      </trkpt>
      <trkpt lat="44.83918" lon="-0.56726">
        <ele>-1.79</ele>
        <time>2016-03-23T19:52:28Z</time>
      </trkpt>
      <trkpt lat="44.83931" lon="-0.56739">
        <ele>-1.3</ele>
        <time>2016-03-23T19:52:42Z</time>
      </trkpt>
      <trkpt lat="44.83933" lon="-0.56746">
        <ele>-1.3</ele>
        <time>2016-03-23T19:52:56Z</time>
      </trkpt>
      <trkpt lat="44.83932" lon="-0.56745">
        <ele>-1.3</ele>
        <time>2016-03-23T19:53:22Z</time>
      </trkpt>
      <trkpt lat="44.83932" lon="-0.56746">
        <ele>-1.3</ele>
        <time>2016-03-23T19:53:43Z</time>
      </trkpt>
      <trkpt lat="44.83935" lon="-0.56745">
        <ele>-1.3</ele>
        <time>2016-03-23T19:54:01Z</time>
      </trkpt>
      <trkpt lat="44.8394" lon="-0.56743">
        <ele>-1.3</ele>
        <time>2016-03-23T19:54:12Z</time>
      </trkpt>
      <trkpt lat="44.83935" lon="-0.56745">
        <ele>-1.3</ele>
        <time>2016-03-23T19:54:27Z</time>
      </trkpt>
      <trkpt lat="44.8394" lon="-0.56748">
        <ele>-1.3</ele>
        <time>2016-03-23T19:54:42Z</time>
      </trkpt>
      <trkpt lat="44.83948" lon="-0.56753">
        <ele>-1.3</ele>
        <time>2016-03-23T19:54:54Z</time>
      </trkpt>
      <trkpt lat="44.83959" lon="-0.56761">
        <ele>-1.3</ele>
        <time>2016-03-23T19:55:07Z</time>
      </trkpt>
      <trkpt lat="44.8396" lon="-0.56762">
        <ele>0.14</ele>
        <time>2016-03-23T19:55:09Z</time>
      </trkpt>
      <trkpt lat="44.83971" lon="-0.56772">
        <ele>-1.3</ele>
        <time>2016-03-23T19:55:21Z</time>
      </trkpt>
      <trkpt lat="44.83981" lon="-0.5678">
        <ele>0.14</ele>
        <time>2016-03-23T19:55:32Z</time>
      </trkpt>
      <trkpt lat="44.83992" lon="-0.56787">
        <ele>0.14</ele>
        <time>2016-03-23T19:55:43Z</time>
      </trkpt>
      <trkpt lat="44.84002" lon="-0.56793">
        <ele>-0.34</ele>
        <time>2016-03-23T19:55:54Z</time>
      </trkpt>
      <trkpt lat="44.84013" lon="-0.56798">
        <ele>0.14</ele>
        <time>2016-03-23T19:56:06Z</time>
      </trkpt>
      <trkpt lat="44.84027" lon="-0.56805">
        <ele>-1.3</ele>
        <time>2016-03-23T19:56:19Z</time>
      </trkpt>
      <trkpt lat="44.84035" lon="-0.56808">
        <ele>-1.3</ele>
        <time>2016-03-23T19:56:26Z</time>
      </trkpt>
      <trkpt lat="44.84042" lon="-0.56812">
        <ele>-1.3</ele>
        <time>2016-03-23T19:56:34Z</time>
      </trkpt>
      <trkpt lat="44.8405" lon="-0.56816">
        <ele>-1.79</ele>
        <time>2016-03-23T19:56:42Z</time>
      </trkpt>
      <trkpt lat="44.84052" lon="-0.56817">
        <ele>-1.79</ele>
        <time>2016-03-23T19:56:44Z</time>
      </trkpt>
      <trkpt lat="44.84058" lon="-0.56819">
        <ele>-1.79</ele>
        <time>2016-03-23T19:56:50Z</time>
      </trkpt>
      <trkpt lat="44.84071" lon="-0.56824">
        <ele>-1.79</ele>
        <time>2016-03-23T19:57:03Z</time>
      </trkpt>
      <trkpt lat="44.84079" lon="-0.56828">
        <ele>-1.3</ele>
        <time>2016-03-23T19:57:11Z</time>
      </trkpt>
      <trkpt lat="44.84093" lon="-0.56834">
        <ele>-1.79</ele>
        <time>2016-03-23T19:57:24Z</time>
      </trkpt>
      <trkpt lat="44.84106" lon="-0.56839">
        <ele>-1.79</ele>
        <time>2016-03-23T19:57:37Z</time>
      </trkpt>
      <trkpt lat="44.8411" lon="-0.5684">
        <ele>-1.3</ele>
        <time>2016-03-23T19:57:41Z</time>
      </trkpt>
      <trkpt lat="44.8412" lon="-0.56847">
        <ele>-1.3</ele>
        <time>2016-03-23T19:57:55Z</time>
      </trkpt>
      <trkpt lat="44.8412" lon="-0.56855">
        <ele>-1.3</ele>
        <time>2016-03-23T19:58:08Z</time>
      </trkpt>
      <trkpt lat="44.84121" lon="-0.56857">
        <ele>-0.34</ele>
        <time>2016-03-23T19:58:11Z</time>
      </trkpt>
      <trkpt lat="44.84119" lon="-0.5686">
        <ele>0.62</ele>
        <time>2016-03-23T19:58:27Z</time>
      </trkpt>
      <trkpt lat="44.84121" lon="-0.56859">
        <ele>0.62</ele>
        <time>2016-03-23T19:58:48Z</time>
      </trkpt>
      <trkpt lat="44.84121" lon="-0.56861">
        <ele>-0.34</ele>
        <time>2016-03-23T19:59:08Z</time>
      </trkpt>
      <trkpt lat="44.84122" lon="-0.56859">
        <ele>-1.3</ele>
        <time>2016-03-23T19:59:28Z</time>
      </trkpt>
      <trkpt lat="44.84122" lon="-0.56862">
        <ele>-1.3</ele>
        <time>2016-03-23T19:59:45Z</time>
      </trkpt>
      <trkpt lat="44.84119" lon="-0.56863">
        <ele>-1.3</ele>
        <time>2016-03-23T20:00:04Z</time>
      </trkpt>
      <trkpt lat="44.8412" lon="-0.56862">
        <ele>-1.3</ele>
        <time>2016-03-23T20:00:25Z</time>
      </trkpt>
      <trkpt lat="44.84119" lon="-0.56862">
        <ele>-1.3</ele>
        <time>2016-03-23T20:00:41Z</time>
      </trkpt>
      <trkpt lat="44.84119" lon="-0.56861">
        <ele>-1.3</ele>
        <time>2016-03-23T20:01:03Z</time>
      </trkpt>
      <trkpt lat="44.84121" lon="-0.56863">
        <ele>-1.3</ele>
        <time>2016-03-23T20:01:19Z</time>
      </trkpt>
      <trkpt lat="44.84132" lon="-0.56868">
        <ele>-1.3</ele>
        <time>2016-03-23T20:01:33Z</time>
      </trkpt>
      <trkpt lat="44.84141" lon="-0.56876">
        <ele>-1.3</ele>
        <time>2016-03-23T20:01:47Z</time>
      </trkpt>
      <trkpt lat="44.84154" lon="-0.56884">
        <ele>0.14</ele>
        <time>2016-03-23T20:02:01Z</time>
      </trkpt>
      <trkpt lat="44.84167" lon="-0.56897">
        <ele>0.14</ele>
        <time>2016-03-23T20:02:16Z</time>
      </trkpt>
      <trkpt lat="44.84179" lon="-0.56908">
        <ele>0.14</ele>
        <time>2016-03-23T20:02:31Z</time>
      </trkpt>
      <trkpt lat="44.84182" lon="-0.5691">
        <ele>-1.3</ele>
        <time>2016-03-23T20:02:34Z</time>
      </trkpt>
      <trkpt lat="44.84196" lon="-0.56921">
        <ele>-1.3</ele>
        <time>2016-03-23T20:02:49Z</time>
      </trkpt>
      <trkpt lat="44.84199" lon="-0.56925">
        <ele>-1.3</ele>
        <time>2016-03-23T20:02:53Z</time>
      </trkpt>
      <trkpt lat="44.84211" lon="-0.56936">
        <ele>-1.3</ele>
        <time>2016-03-23T20:03:08Z</time>
      </trkpt>
      <trkpt lat="44.84221" lon="-0.56947">
        <ele>-1.79</ele>
        <time>2016-03-23T20:03:23Z</time>
      </trkpt>
      <trkpt lat="44.84221" lon="-0.56958">
        <ele>-1.79</ele>
        <time>2016-03-23T20:03:37Z</time>
      </trkpt>
      <trkpt lat="44.84221" lon="-0.56961">
        <ele>-1.79</ele>
        <time>2016-03-23T20:03:56Z</time>
      </trkpt>
      <trkpt lat="44.84219" lon="-0.56965">
        <ele>-2.27</ele>
        <time>2016-03-23T20:04:13Z</time>
      </trkpt>
      <trkpt lat="44.84212" lon="-0.56979">
        <ele>-2.75</ele>
        <time>2016-03-23T20:04:27Z</time>
      </trkpt>
      <trkpt lat="44.84207" lon="-0.56995">
        <ele>-2.75</ele>
        <time>2016-03-23T20:04:41Z</time>
      </trkpt>
      <trkpt lat="44.84209" lon="-0.57009">
        <ele>-2.75</ele>
        <time>2016-03-23T20:04:54Z</time>
      </trkpt>
      <trkpt lat="44.84224" lon="-0.57025">
        <ele>-3.23</ele>
        <time>2016-03-23T20:05:08Z</time>
      </trkpt>
      <trkpt lat="44.84234" lon="-0.57031">
        <ele>-3.23</ele>
        <time>2016-03-23T20:05:17Z</time>
      </trkpt>
      <trkpt lat="44.84246" lon="-0.57029">
        <ele>-3.23</ele>
        <time>2016-03-23T20:05:33Z</time>
      </trkpt>
      <trkpt lat="44.84253" lon="-0.57037">
        <ele>-3.23</ele>
        <time>2016-03-23T20:05:51Z</time>
      </trkpt>
      <trkpt lat="44.84256" lon="-0.57041">
        <ele>-3.71</ele>
        <time>2016-03-23T20:06:09Z</time>
      </trkpt>
      <trkpt lat="44.84258" lon="-0.5704">
        <ele>-3.71</ele>
        <time>2016-03-23T20:06:34Z</time>
      </trkpt>
      <trkpt lat="44.84259" lon="-0.57038">
        <ele>-3.71</ele>
        <time>2016-03-23T20:07:06Z</time>
      </trkpt>
      <trkpt lat="44.84256" lon="-0.57042">
        <ele>-3.71</ele>
        <time>2016-03-23T20:07:26Z</time>
      </trkpt>
      <trkpt lat="44.84256" lon="-0.57046">
        <ele>-3.71</ele>
        <time>2016-03-23T20:07:46Z</time>
      </trkpt>
      <trkpt lat="44.84251" lon="-0.57058">
        <ele>-3.71</ele>
        <time>2016-03-23T20:08:02Z</time>
      </trkpt>
      <trkpt lat="44.84248" lon="-0.57064">
        <ele>-3.71</ele>
        <time>2016-03-23T20:08:09Z</time>
      </trkpt>
      <trkpt lat="44.84243" lon="-0.57078">
        <ele>-3.71</ele>
        <time>2016-03-23T20:08:22Z</time>
      </trkpt>
      <trkpt lat="44.8424" lon="-0.57085">
        <ele>-3.71</ele>
        <time>2016-03-23T20:08:29Z</time>
      </trkpt>
      <trkpt lat="44.8424" lon="-0.57094">
        <ele>-2.75</ele>
        <time>2016-03-23T20:08:37Z</time>
      </trkpt>
      <trkpt lat="44.8424" lon="-0.57106">
        <ele>-3.71</ele>
        <time>2016-03-23T20:08:49Z</time>
      </trkpt>
      <trkpt lat="44.8424" lon="-0.57119">
        <ele>-2.27</ele>
        <time>2016-03-23T20:09:01Z</time>
      </trkpt>
      <trkpt lat="44.84241" lon="-0.57129">
        <ele>-2.27</ele>
        <time>2016-03-23T20:09:08Z</time>
      </trkpt>
      <trkpt lat="44.84241" lon="-0.57136">
        <ele>-2.27</ele>
        <time>2016-03-23T20:09:15Z</time>
      </trkpt>
      <trkpt lat="44.84243" lon="-0.57153">
        <ele>-1.79</ele>
        <time>2016-03-23T20:09:28Z</time>
      </trkpt>
      <trkpt lat="44.84242" lon="-0.57171">
        <ele>-1.79</ele>
        <time>2016-03-23T20:09:40Z</time>
      </trkpt>
      <trkpt lat="44.84242" lon="-0.57188">
        <ele>-1.3</ele>
        <time>2016-03-23T20:09:52Z</time>
      </trkpt>
      <trkpt lat="44.8424" lon="-0.57206">
        <ele>-0.82</ele>
        <time>2016-03-23T20:10:05Z</time>
      </trkpt>
      <trkpt lat="44.8424" lon="-0.57223">
        <ele>-0.82</ele>
        <time>2016-03-23T20:10:17Z</time>
      </trkpt>
      <trkpt lat="44.84239" lon="-0.57229">
        <ele>-0.82</ele>
        <time>2016-03-23T20:10:21Z</time>
      </trkpt>
      <trkpt lat="44.84239" lon="-0.57232">
        <ele>-0.82</ele>
        <time>2016-03-23T20:10:23Z</time>
      </trkpt>
      <trkpt lat="44.84235" lon="-0.57249">
        <ele>-0.82</ele>
        <time>2016-03-23T20:10:36Z</time>
      </trkpt>
      <trkpt lat="44.84235" lon="-0.57251">
        <ele>-0.82</ele>
        <time>2016-03-23T20:10:38Z</time>
      </trkpt>
      <trkpt lat="44.84234" lon="-0.5726">
        <ele>-1.3</ele>
        <time>2016-03-23T20:10:45Z</time>
      </trkpt>
      <trkpt lat="44.84231" lon="-0.57276">
        <ele>-0.34</ele>
        <time>2016-03-23T20:10:57Z</time>
      </trkpt>
      <trkpt lat="44.84229" lon="-0.57293">
        <ele>-0.34</ele>
        <time>2016-03-23T20:11:10Z</time>
      </trkpt>
      <trkpt lat="44.84228" lon="-0.57309">
        <ele>-0.34</ele>
        <time>2016-03-23T20:11:21Z</time>
      </trkpt>
      <trkpt lat="44.84228" lon="-0.57327">
        <ele>0.62</ele>
        <time>2016-03-23T20:11:33Z</time>
      </trkpt>
      <trkpt lat="44.84228" lon="-0.57331">
        <ele>0.62</ele>
        <time>2016-03-23T20:11:36Z</time>
      </trkpt>
      <trkpt lat="44.84228" lon="-0.57337">
        <ele>1.1</ele>
        <time>2016-03-23T20:11:40Z</time>
      </trkpt>
      <trkpt lat="44.84228" lon="-0.57351">
        <ele>1.1</ele>
        <time>2016-03-23T20:11:51Z</time>
      </trkpt>
      <trkpt lat="44.84226" lon="-0.57367">
        <ele>1.58</ele>
        <time>2016-03-23T20:12:04Z</time>
      </trkpt>
      <trkpt lat="44.84226" lon="-0.57371">
        <ele>0.14</ele>
        <time>2016-03-23T20:12:07Z</time>
      </trkpt>
      <trkpt lat="44.84226" lon="-0.57377">
        <ele>1.58</ele>
        <time>2016-03-23T20:12:11Z</time>
      </trkpt>
      <trkpt lat="44.84224" lon="-0.57386">
        <ele>2.06</ele>
        <time>2016-03-23T20:12:19Z</time>
      </trkpt>
      <trkpt lat="44.84223" lon="-0.5739">
        <ele>2.06</ele>
        <time>2016-03-23T20:12:23Z</time>
      </trkpt>
      <trkpt lat="44.84222" lon="-0.57393">
        <ele>2.06</ele>
        <time>2016-03-23T20:12:26Z</time>
      </trkpt>
      <trkpt lat="44.84221" lon="-0.57401">
        <ele>2.06</ele>
        <time>2016-03-23T20:12:33Z</time>
      </trkpt>
      <trkpt lat="44.8422" lon="-0.57405">
        <ele>0.62</ele>
        <time>2016-03-23T20:12:36Z</time>
      </trkpt>
      <trkpt lat="44.84221" lon="-0.57419">
        <ele>0.62</ele>
        <time>2016-03-23T20:12:49Z</time>
      </trkpt>
      <trkpt lat="44.84219" lon="-0.57427">
        <ele>0.62</ele>
        <time>2016-03-23T20:13:02Z</time>
      </trkpt>
      <trkpt lat="44.84225" lon="-0.5743">
        <ele>1.58</ele>
        <time>2016-03-23T20:13:13Z</time>
      </trkpt>
      <trkpt lat="44.84229" lon="-0.57429">
        <ele>2.06</ele>
        <time>2016-03-23T20:13:17Z</time>
      </trkpt>
      <trkpt lat="44.84242" lon="-0.57426">
        <ele>2.06</ele>
        <time>2016-03-23T20:13:31Z</time>
      </trkpt>
      <trkpt lat="44.84242" lon="-0.57426">
        <ele>2.06</ele>
        <time>2016-03-23T20:13:32Z</time>
      </trkpt>
      <trkpt lat="44.84245" lon="-0.57425">
        <ele>2.06</ele>
        <time>2016-03-23T20:13:35Z</time>
      </trkpt>
      <trkpt lat="44.84258" lon="-0.57424">
        <ele>2.06</ele>
        <time>2016-03-23T20:13:49Z</time>
      </trkpt>
      <trkpt lat="44.84269" lon="-0.57429">
        <ele>2.06</ele>
        <time>2016-03-23T20:14:01Z</time>
      </trkpt>
      <trkpt lat="44.84268" lon="-0.57431">
        <ele>2.06</ele>
        <time>2016-03-23T20:14:02Z</time>
      </trkpt>
      <trkpt lat="44.84264" lon="-0.57451">
        <ele>2.06</ele>
        <time>2016-03-23T20:14:16Z</time>
      </trkpt>
      <trkpt lat="44.84263" lon="-0.57461">
        <ele>2.54</ele>
        <time>2016-03-23T20:14:32Z</time>
      </trkpt>
      <trkpt lat="44.84262" lon="-0.57461">
        <ele>2.54</ele>
        <time>2016-03-23T20:14:48Z</time>
      </trkpt>
      <trkpt lat="44.84266" lon="-0.57448">
        <ele>3.02</ele>
        <time>2016-03-23T20:15:03Z</time>
      </trkpt>
      <trkpt lat="44.84266" lon="-0.57449">
        <ele>3.02</ele>
        <time>2016-03-23T20:15:25Z</time>
      </trkpt>
      <trkpt lat="44.84269" lon="-0.5745">
        <ele>3.5</ele>
        <time>2016-03-23T20:15:48Z</time>
      </trkpt>
      <trkpt lat="44.84266" lon="-0.57448">
        <ele>3.5</ele>
        <time>2016-03-23T20:16:11Z</time>
      </trkpt>
      <trkpt lat="44.84263" lon="-0.57454">
        <ele>3.98</ele>
        <time>2016-03-23T20:16:30Z</time>
      </trkpt>
      <trkpt lat="44.84261" lon="-0.57454">
        <ele>3.98</ele>
        <time>2016-03-23T20:16:47Z</time>
      </trkpt>
      <trkpt lat="44.84252" lon="-0.57459">
        <ele>3.02</ele>
        <time>2016-03-23T20:17:00Z</time>
      </trkpt>
      <trkpt lat="44.84239" lon="-0.57451">
        <ele>3.5</ele>
        <time>2016-03-23T20:17:14Z</time>
      </trkpt>
      <trkpt lat="44.84229" lon="-0.57453">
        <ele>3.5</ele>
        <time>2016-03-23T20:17:30Z</time>
      </trkpt>
      <trkpt lat="44.84218" lon="-0.57456">
        <ele>3.5</ele>
        <time>2016-03-23T20:17:47Z</time>
      </trkpt>
      <trkpt lat="44.84206" lon="-0.57453">
        <ele>3.5</ele>
        <time>2016-03-23T20:18:03Z</time>
      </trkpt>
      <trkpt lat="44.84201" lon="-0.57453">
        <ele>3.5</ele>
        <time>2016-03-23T20:18:14Z</time>
      </trkpt>
      <trkpt lat="44.84192" lon="-0.57447">
        <ele>3.98</ele>
        <time>2016-03-23T20:18:31Z</time>
      </trkpt>
      <trkpt lat="44.84179" lon="-0.57454">
        <ele>3.98</ele>
        <time>2016-03-23T20:18:49Z</time>
      </trkpt>
      <trkpt lat="44.84168" lon="-0.5745">
        <ele>3.98</ele>
        <time>2016-03-23T20:19:08Z</time>
      </trkpt>
      <trkpt lat="44.84159" lon="-0.57448">
        <ele>5.42</ele>
        <time>2016-03-23T20:19:20Z</time>
      </trkpt>
      <trkpt lat="44.84151" lon="-0.57444">
        <ele>5.42</ele>
        <time>2016-03-23T20:19:31Z</time>
      </trkpt>
      <trkpt lat="44.84138" lon="-0.57446">
        <ele>3.98</ele>
        <time>2016-03-23T20:19:45Z</time>
      </trkpt>
      <trkpt lat="44.84133" lon="-0.57446">
        <ele>3.98</ele>
        <time>2016-03-23T20:19:52Z</time>
      </trkpt>
      <trkpt lat="44.84117" lon="-0.57446">
        <ele>3.5</ele>
        <time>2016-03-23T20:20:08Z</time>
      </trkpt>
      <trkpt lat="44.84112" lon="-0.5743">
        <ele>3.5</ele>
        <time>2016-03-23T20:20:22Z</time>
      </trkpt>
      <trkpt lat="44.84114" lon="-0.57415">
        <ele>3.5</ele>
        <time>2016-03-23T20:20:32Z</time>
      </trkpt>
      <trkpt lat="44.84116" lon="-0.57399">
        <ele>3.98</ele>
        <time>2016-03-23T20:20:43Z</time>
      </trkpt>
      <trkpt lat="44.84117" lon="-0.57379">
        <ele>3.98</ele>
        <time>2016-03-23T20:21:03Z</time>
      </trkpt>
      <trkpt lat="44.8412" lon="-0.57356">
        <ele>2.54</ele>
        <time>2016-03-23T20:21:21Z</time>
      </trkpt>
      <trkpt lat="44.84124" lon="-0.57334">
        <ele>2.54</ele>
        <time>2016-03-23T20:21:39Z</time>
      </trkpt>
      <trkpt lat="44.84123" lon="-0.5731">
        <ele>2.06</ele>
        <time>2016-03-23T20:21:59Z</time>
      </trkpt>
      <trkpt lat="44.84128" lon="-0.57296">
        <ele>1.58</ele>
        <time>2016-03-23T20:22:16Z</time>
      </trkpt>
      <trkpt lat="44.84131" lon="-0.57274">
        <ele>0.62</ele>
        <time>2016-03-23T20:22:36Z</time>
      </trkpt>
      <trkpt lat="44.8413" lon="-0.57251">
        <ele>-0.34</ele>
        <time>2016-03-23T20:23:00Z</time>
      </trkpt>
      <trkpt lat="44.84124" lon="-0.57241">
        <ele>-0.82</ele>
        <time>2016-03-23T20:23:13Z</time>
      </trkpt>
      <trkpt lat="44.84113" lon="-0.57233">
        <ele>-1.79</ele>
        <time>2016-03-23T20:23:31Z</time>
      </trkpt>
      <trkpt lat="44.84101" lon="-0.57231">
        <ele>-1.79</ele>
        <time>2016-03-23T20:23:47Z</time>
      </trkpt>
      <trkpt lat="44.84088" lon="-0.57245">
        <ele>-2.27</ele>
        <time>2016-03-23T20:24:02Z</time>
      </trkpt>
      <trkpt lat="44.84081" lon="-0.57231">
        <ele>-2.27</ele>
        <time>2016-03-23T20:24:15Z</time>
      </trkpt>
      <trkpt lat="44.84076" lon="-0.57218">
        <ele>-2.75</ele>
        <time>2016-03-23T20:24:28Z</time>
      </trkpt>
      <trkpt lat="44.84072" lon="-0.57211">
        <ele>-2.75</ele>
        <time>2016-03-23T20:24:44Z</time>
      </trkpt>
      <trkpt lat="44.84072" lon="-0.57211">
        <ele>-2.27</ele>
        <time>2016-03-23T20:25:06Z</time>
      </trkpt>
      <trkpt lat="44.8407" lon="-0.57205">
        <ele>-2.27</ele>
        <time>2016-03-23T20:25:37Z</time>
      </trkpt>
      <trkpt lat="44.84072" lon="-0.57207">
        <ele>-2.27</ele>
        <time>2016-03-23T20:25:55Z</time>
      </trkpt>
      <trkpt lat="44.84074" lon="-0.57208">
        <ele>-2.27</ele>
        <time>2016-03-23T20:26:29Z</time>
      </trkpt>
      <trkpt lat="44.84074" lon="-0.57207">
        <ele>-1.3</ele>
        <time>2016-03-23T20:26:53Z</time>
      </trkpt>
      <trkpt lat="44.84067" lon="-0.57204">
        <ele>-2.27</ele>
        <time>2016-03-23T20:27:18Z</time>
      </trkpt>
      <trkpt lat="44.84059" lon="-0.57195">
        <ele>-2.27</ele>
        <time>2016-03-23T20:27:32Z</time>
      </trkpt>
      <trkpt lat="44.84053" lon="-0.57189">
        <ele>-2.27</ele>
        <time>2016-03-23T20:27:46Z</time>
      </trkpt>
      <trkpt lat="44.84047" lon="-0.5718">
        <ele>-2.75</ele>
        <time>2016-03-23T20:27:59Z</time>
      </trkpt>
      <trkpt lat="44.84043" lon="-0.57165">
        <ele>-2.75</ele>
        <time>2016-03-23T20:28:20Z</time>
      </trkpt>
      <trkpt lat="44.84039" lon="-0.5714">
        <ele>-2.75</ele>
        <time>2016-03-23T20:28:40Z</time>
      </trkpt>
      <trkpt lat="44.84031" lon="-0.57127">
        <ele>-1.79</ele>
        <time>2016-03-23T20:28:57Z</time>
      </trkpt>
      <trkpt lat="44.84031" lon="-0.57112">
        <ele>-1.79</ele>
        <time>2016-03-23T20:29:13Z</time>
      </trkpt>
      <trkpt lat="44.84021" lon="-0.57106">
        <ele>-1.3</ele>
        <time>2016-03-23T20:29:31Z</time>
      </trkpt>
      <trkpt lat="44.84019" lon="-0.5708">
        <ele>-1.3</ele>
        <time>2016-03-23T20:29:51Z</time>
      </trkpt>
      <trkpt lat="44.8401" lon="-0.57064">
        <ele>-2.27</ele>
        <time>2016-03-23T20:30:09Z</time>
      </trkpt>
      <trkpt lat="44.84" lon="-0.57065">
        <ele>-2.27</ele>
        <time>2016-03-23T20:30:22Z</time>
      </trkpt>
      <trkpt lat="44.83992" lon="-0.5706">
        <ele>-2.75</ele>
        <time>2016-03-23T20:30:37Z</time>
      </trkpt>
      <trkpt lat="44.83984" lon="-0.57056">
        <ele>-3.23</ele>
        <time>2016-03-23T20:30:52Z</time>
      </trkpt>
      <trkpt lat="44.83985" lon="-0.57058">
        <ele>-2.75</ele>
        <time>2016-03-23T20:31:19Z</time>
      </trkpt>
      <trkpt lat="44.83986" lon="-0.57055">
        <ele>-1.79</ele>
        <time>2016-03-23T20:31:23Z</time>
      </trkpt>
      <trkpt lat="44.83988" lon="-0.57049">
        <ele>-1.3</ele>
        <time>2016-03-23T20:31:45Z</time>
      </trkpt>
      <trkpt lat="44.83982" lon="-0.57055">
        <ele>-0.82</ele>
        <time>2016-03-23T20:32:14Z</time>
      </trkpt>
      <trkpt lat="44.83981" lon="-0.57056">
        <ele>-2.27</ele>
        <time>2016-03-23T20:32:32Z</time>
      </trkpt>
      <trkpt lat="44.83976" lon="-0.57054">
        <ele>-1.79</ele>
        <time>2016-03-23T20:32:47Z</time>
      </trkpt>
      <trkpt lat="44.83966" lon="-0.57054">
        <ele>-1.79</ele>
        <time>2016-03-23T20:33:01Z</time>
      </trkpt>
      <trkpt lat="44.83961" lon="-0.57052">
        <ele>-1.79</ele>
        <time>2016-03-23T20:33:13Z</time>
      </trkpt>
      <trkpt lat="44.83962" lon="-0.57046">
        <ele>-1.3</ele>
        <time>2016-03-23T20:33:30Z</time>
      </trkpt>
      <trkpt lat="44.83962" lon="-0.57025">
        <ele>-1.79</ele>
        <time>2016-03-23T20:33:48Z</time>
      </trkpt>
      <trkpt lat="44.83963" lon="-0.57024">
        <ele>-0.34</ele>
        <time>2016-03-23T20:34:00Z</time>
      </trkpt>
      <trkpt lat="44.83965" lon="-0.57026">
        <ele>-0.34</ele>
        <time>2016-03-23T20:34:14Z</time>
      </trkpt>
      <trkpt lat="44.83956" lon="-0.57025">
        <ele>-0.34</ele>
        <time>2016-03-23T20:34:33Z</time>
      </trkpt>
      <trkpt lat="44.83952" lon="-0.57025">
        <ele>-1.79</ele>
        <time>2016-03-23T20:34:37Z</time>
      </trkpt>
      <trkpt lat="44.83936" lon="-0.57021">
        <ele>-0.34</ele>
        <time>2016-03-23T20:34:52Z</time>
      </trkpt>
      <trkpt lat="44.83925" lon="-0.57029">
        <ele>-0.34</ele>
        <time>2016-03-23T20:35:08Z</time>
      </trkpt>
      <trkpt lat="44.83923" lon="-0.57033">
        <ele>0.14</ele>
        <time>2016-03-23T20:35:26Z</time>
      </trkpt>
      <trkpt lat="44.83924" lon="-0.57033">
        <ele>0.14</ele>
        <time>2016-03-23T20:35:37Z</time>
      </trkpt>
      <trkpt lat="44.83933" lon="-0.57022">
        <ele>0.14</ele>
        <time>2016-03-23T20:35:55Z</time>
      </trkpt>
      <trkpt lat="44.83935" lon="-0.57039">
        <ele>0.62</ele>
        <time>2016-03-23T20:36:14Z</time>
      </trkpt>
      <trkpt lat="44.83958" lon="-0.57019">
        <ele>0.62</ele>
        <time>2016-03-23T20:36:30Z</time>
      </trkpt>
      <trkpt lat="44.8396" lon="-0.5701">
        <ele>1.1</ele>
        <time>2016-03-23T20:36:45Z</time>
      </trkpt>
      <trkpt lat="44.83964" lon="-0.5701">
        <ele>0.14</ele>
        <time>2016-03-23T20:36:58Z</time>
      </trkpt>
      <trkpt lat="44.83962" lon="-0.57009">
        <ele>0.14</ele>
        <time>2016-03-23T20:37:17Z</time>
      </trkpt>
      <trkpt lat="44.83962" lon="-0.57007">
        <ele>0.14</ele>
        <time>2016-03-23T20:37:40Z</time>
      </trkpt>
      <trkpt lat="44.8396" lon="-0.57007">
        <ele>0.62</ele>
        <time>2016-03-23T20:38:08Z</time>
      </trkpt>
      <trkpt lat="44.83961" lon="-0.57006">
        <ele>0.62</ele>
        <time>2016-03-23T20:38:31Z</time>
      </trkpt>
      <trkpt lat="44.83963" lon="-0.57005">
        <ele>1.1</ele>
        <time>2016-03-23T20:38:50Z</time>
      </trkpt>
      <trkpt lat="44.83968" lon="-0.56987">
        <ele>1.1</ele>
        <time>2016-03-23T20:39:05Z</time>
      </trkpt>
      <trkpt lat="44.8397" lon="-0.56982">
        <ele>1.1</ele>
        <time>2016-03-23T20:39:10Z</time>
      </trkpt>
      <trkpt lat="44.83979" lon="-0.56978">
        <ele>1.1</ele>
        <time>2016-03-23T20:39:23Z</time>
      </trkpt>
      <trkpt lat="44.83986" lon="-0.56968">
        <ele>1.1</ele>
        <time>2016-03-23T20:39:35Z</time>
      </trkpt>
      <trkpt lat="44.83983" lon="-0.56958">
        <ele>0.62</ele>
        <time>2016-03-23T20:39:49Z</time>
      </trkpt>
      <trkpt lat="44.83987" lon="-0.5695">
        <ele>1.58</ele>
        <time>2016-03-23T20:39:59Z</time>
      </trkpt>
      <trkpt lat="44.83986" lon="-0.5694">
        <ele>1.58</ele>
        <time>2016-03-23T20:40:16Z</time>
      </trkpt>
      <trkpt lat="44.83977" lon="-0.56931">
        <ele>1.58</ele>
        <time>2016-03-23T20:40:31Z</time>
      </trkpt>
      <trkpt lat="44.83964" lon="-0.56916">
        <ele>1.58</ele>
        <time>2016-03-23T20:40:54Z</time>
      </trkpt>
      <trkpt lat="44.83951" lon="-0.56907">
        <ele>1.58</ele>
        <time>2016-03-23T20:41:11Z</time>
      </trkpt>
      <trkpt lat="44.83936" lon="-0.56895">
        <ele>1.1</ele>
        <time>2016-03-23T20:41:32Z</time>
      </trkpt>
      <trkpt lat="44.8392" lon="-0.56889">
        <ele>1.1</ele>
        <time>2016-03-23T20:41:51Z</time>
      </trkpt>
      <trkpt lat="44.83909" lon="-0.5688">
        <ele>0.62</ele>
        <time>2016-03-23T20:42:11Z</time>
      </trkpt>
      <trkpt lat="44.83896" lon="-0.56872">
        <ele>-0.34</ele>
        <time>2016-03-23T20:42:28Z</time>
      </trkpt>
      <trkpt lat="44.83875" lon="-0.56875">
        <ele>-0.82</ele>
        <time>2016-03-23T20:42:44Z</time>
      </trkpt>
      <trkpt lat="44.83874" lon="-0.56868">
        <ele>0.14</ele>
        <time>2016-03-23T20:46:11Z</time>
      </trkpt>
      <trkpt lat="44.83867" lon="-0.56868">
        <ele>0.62</ele>
        <time>2016-03-23T20:46:29Z</time>
      </trkpt>
      <trkpt lat="44.83865" lon="-0.56869">
        <ele>1.1</ele>
        <time>2016-03-23T20:46:44Z</time>
      </trkpt>
      <trkpt lat="44.83876" lon="-0.56851">
        <ele>1.58</ele>
        <time>2016-03-23T20:47:21Z</time>
      </trkpt>
      <trkpt lat="44.83884" lon="-0.5684">
        <ele>1.1</ele>
        <time>2016-03-23T20:47:35Z</time>
      </trkpt>
      <trkpt lat="44.83887" lon="-0.56823">
        <ele>1.1</ele>
        <time>2016-03-23T20:47:50Z</time>
      </trkpt>
      <trkpt lat="44.8389" lon="-0.56815">
        <ele>1.1</ele>
        <time>2016-03-23T20:48:03Z</time>
      </trkpt>
      <trkpt lat="44.83891" lon="-0.56801">
        <ele>1.1</ele>
        <time>2016-03-23T20:48:18Z</time>
      </trkpt>
      <trkpt lat="44.83891" lon="-0.56792">
        <ele>1.1</ele>
        <time>2016-03-23T20:48:25Z</time>
      </trkpt>
      <trkpt lat="44.83891" lon="-0.56785">
        <ele>1.1</ele>
        <time>2016-03-23T20:48:40Z</time>
      </trkpt>
      <trkpt lat="44.83891" lon="-0.56777">
        <ele>1.1</ele>
        <time>2016-03-23T20:49:02Z</time>
      </trkpt>
      <trkpt lat="44.83898" lon="-0.56762">
        <ele>1.1</ele>
        <time>2016-03-23T20:49:13Z</time>
      </trkpt>
      <trkpt lat="44.83898" lon="-0.56759">
        <ele>1.1</ele>
        <time>2016-03-23T20:49:16Z</time>
      </trkpt>
      <trkpt lat="44.83893" lon="-0.56753">
        <ele>1.58</ele>
        <time>2016-03-23T20:49:29Z</time>
      </trkpt>
      <trkpt lat="44.83884" lon="-0.56745">
        <ele>1.58</ele>
        <time>2016-03-23T20:49:43Z</time>
      </trkpt>
      <trkpt lat="44.83881" lon="-0.56743">
        <ele>2.54</ele>
        <time>2016-03-23T20:49:46Z</time>
      </trkpt>
      <trkpt lat="44.83877" lon="-0.56739">
        <ele>2.54</ele>
        <time>2016-03-23T20:49:51Z</time>
      </trkpt>
      <trkpt lat="44.8387" lon="-0.56737">
        <ele>2.54</ele>
        <time>2016-03-23T20:49:57Z</time>
      </trkpt>
      <trkpt lat="44.83866" lon="-0.56734">
        <ele>1.58</ele>
        <time>2016-03-23T20:50:01Z</time>
      </trkpt>
      <trkpt lat="44.83856" lon="-0.56723">
        <ele>1.58</ele>
        <time>2016-03-23T20:50:13Z</time>
      </trkpt>
      <trkpt lat="44.8385" lon="-0.56714">
        <ele>1.58</ele>
        <time>2016-03-23T20:50:21Z</time>
      </trkpt>
      <trkpt lat="44.83848" lon="-0.56711">
        <ele>2.54</ele>
        <time>2016-03-23T20:50:24Z</time>
      </trkpt>
      <trkpt lat="44.83836" lon="-0.56701">
        <ele>3.02</ele>
        <time>2016-03-23T20:50:36Z</time>
      </trkpt>
      <trkpt lat="44.83825" lon="-0.56686">
        <ele>2.54</ele>
        <time>2016-03-23T20:50:49Z</time>
      </trkpt>
      <trkpt lat="44.83816" lon="-0.56676">
        <ele>3.02</ele>
        <time>2016-03-23T20:50:59Z</time>
      </trkpt>
      <trkpt lat="44.83806" lon="-0.56659">
        <ele>3.5</ele>
        <time>2016-03-23T20:51:15Z</time>
      </trkpt>
      <trkpt lat="44.83797" lon="-0.56648">
        <ele>3.5</ele>
        <time>2016-03-23T20:51:27Z</time>
      </trkpt>
      <trkpt lat="44.83786" lon="-0.56638">
        <ele>3.98</ele>
        <time>2016-03-23T20:51:41Z</time>
      </trkpt>
      <trkpt lat="44.8378" lon="-0.56628">
        <ele>4.46</ele>
        <time>2016-03-23T20:51:56Z</time>
      </trkpt>
      <trkpt lat="44.8377" lon="-0.56617">
        <ele>4.94</ele>
        <time>2016-03-23T20:52:09Z</time>
      </trkpt>
      <trkpt lat="44.8376" lon="-0.56605">
        <ele>5.42</ele>
        <time>2016-03-23T20:52:22Z</time>
      </trkpt>
      <trkpt lat="44.83748" lon="-0.56593">
        <ele>5.91</ele>
        <time>2016-03-23T20:52:36Z</time>
      </trkpt>
      <trkpt lat="44.83736" lon="-0.56581">
        <ele>6.87</ele>
        <time>2016-03-23T20:52:49Z</time>
      </trkpt>
      <trkpt lat="44.83725" lon="-0.56566">
        <ele>6.87</ele>
        <time>2016-03-23T20:53:03Z</time>
      </trkpt>
      <trkpt lat="44.83718" lon="-0.56556">
        <ele>7.35</ele>
        <time>2016-03-23T20:53:14Z</time>
      </trkpt>
      <trkpt lat="44.8371" lon="-0.56538">
        <ele>8.31</ele>
        <time>2016-03-23T20:53:28Z</time>
      </trkpt>
      <trkpt lat="44.8371" lon="-0.56534">
        <ele>8.31</ele>
        <time>2016-03-23T20:53:31Z</time>
      </trkpt>
      <trkpt lat="44.83713" lon="-0.56514">
        <ele>9.27</ele>
        <time>2016-03-23T20:53:44Z</time>
      </trkpt>
      <trkpt lat="44.83714" lon="-0.56513">
        <ele>9.27</ele>
        <time>2016-03-23T20:53:45Z</time>
      </trkpt>
      <trkpt lat="44.83723" lon="-0.56497">
        <ele>10.71</ele>
        <time>2016-03-23T20:53:59Z</time>
      </trkpt>
      <trkpt lat="44.83732" lon="-0.5648">
        <ele>10.71</ele>
        <time>2016-03-23T20:54:14Z</time>
      </trkpt>
      <trkpt lat="44.8374" lon="-0.56467">
        <ele>10.71</ele>
        <time>2016-03-23T20:54:26Z</time>
      </trkpt>
      <trkpt lat="44.83747" lon="-0.56455">
        <ele>10.23</ele>
        <time>2016-03-23T20:54:37Z</time>
      </trkpt>
      <trkpt lat="44.83747" lon="-0.56454">
        <ele>10.23</ele>
        <time>2016-03-23T20:54:38Z</time>
      </trkpt>
      <trkpt lat="44.83756" lon="-0.56439">
        <ele>10.23</ele>
        <time>2016-03-23T20:54:52Z</time>
      </trkpt>
      <trkpt lat="44.83765" lon="-0.56426">
        <ele>10.23</ele>
        <time>2016-03-23T20:55:04Z</time>
      </trkpt>
      <trkpt lat="44.83768" lon="-0.56419">
        <ele>11.19</ele>
        <time>2016-03-23T20:55:12Z</time>
      </trkpt>
      <trkpt lat="44.83771" lon="-0.56413">
        <ele>11.19</ele>
        <time>2016-03-23T20:55:17Z</time>
      </trkpt>
      <trkpt lat="44.83779" lon="-0.56401">
        <ele>11.67</ele>
        <time>2016-03-23T20:55:29Z</time>
      </trkpt>
      <trkpt lat="44.83788" lon="-0.56386">
        <ele>12.15</ele>
        <time>2016-03-23T20:55:42Z</time>
      </trkpt>
      <trkpt lat="44.83797" lon="-0.56373">
        <ele>12.15</ele>
        <time>2016-03-23T20:55:55Z</time>
      </trkpt>
      <trkpt lat="44.83797" lon="-0.56372">
        <ele>12.15</ele>
        <time>2016-03-23T20:55:56Z</time>
      </trkpt>
      <trkpt lat="44.83806" lon="-0.56359">
        <ele>12.15</ele>
        <time>2016-03-23T20:56:09Z</time>
      </trkpt>
      <trkpt lat="44.83815" lon="-0.56345">
        <ele>12.15</ele>
        <time>2016-03-23T20:56:22Z</time>
      </trkpt>
      <trkpt lat="44.83822" lon="-0.56334">
        <ele>10.71</ele>
        <time>2016-03-23T20:56:32Z</time>
      </trkpt>
      <trkpt lat="44.83831" lon="-0.56321">
        <ele>12.63</ele>
        <time>2016-03-23T20:56:45Z</time>
      </trkpt>
      <trkpt lat="44.83832" lon="-0.56318">
        <ele>11.19</ele>
        <time>2016-03-23T20:56:47Z</time>
      </trkpt>
      <trkpt lat="44.8384" lon="-0.56304">
        <ele>11.19</ele>
        <time>2016-03-23T20:57:00Z</time>
      </trkpt>
      <trkpt lat="44.83849" lon="-0.5629">
        <ele>11.19</ele>
        <time>2016-03-23T20:57:12Z</time>
      </trkpt>
      <trkpt lat="44.83858" lon="-0.56277">
        <ele>11.19</ele>
        <time>2016-03-23T20:57:25Z</time>
      </trkpt>
      <trkpt lat="44.83867" lon="-0.56263">
        <ele>11.19</ele>
        <time>2016-03-23T20:57:38Z</time>
      </trkpt>
      <trkpt lat="44.83875" lon="-0.5625">
        <ele>11.19</ele>
        <time>2016-03-23T20:57:49Z</time>
      </trkpt>
      <trkpt lat="44.83885" lon="-0.56236">
        <ele>12.15</ele>
        <time>2016-03-23T20:58:03Z</time>
      </trkpt>
      <trkpt lat="44.83887" lon="-0.56233">
        <ele>10.71</ele>
        <time>2016-03-23T20:58:05Z</time>
      </trkpt>
      <trkpt lat="44.83895" lon="-0.56218">
        <ele>10.71</ele>
        <time>2016-03-23T20:58:18Z</time>
      </trkpt>
      <trkpt lat="44.83905" lon="-0.56203">
        <ele>10.71</ele>
        <time>2016-03-23T20:58:31Z</time>
      </trkpt>
      <trkpt lat="44.83915" lon="-0.56187">
        <ele>10.23</ele>
        <time>2016-03-23T20:58:45Z</time>
      </trkpt>
      <trkpt lat="44.83923" lon="-0.56175">
        <ele>11.19</ele>
        <time>2016-03-23T20:58:56Z</time>
      </trkpt>
      <trkpt lat="44.83932" lon="-0.56162">
        <ele>10.23</ele>
        <time>2016-03-23T20:59:08Z</time>
      </trkpt>
      <trkpt lat="44.83941" lon="-0.56146">
        <ele>10.23</ele>
        <time>2016-03-23T20:59:21Z</time>
      </trkpt>
      <trkpt lat="44.83949" lon="-0.56132">
        <ele>9.75</ele>
        <time>2016-03-23T20:59:33Z</time>
      </trkpt>
      <trkpt lat="44.8395" lon="-0.5613">
        <ele>9.75</ele>
        <time>2016-03-23T20:59:35Z</time>
      </trkpt>
      <trkpt lat="44.8396" lon="-0.56116">
        <ele>9.27</ele>
        <time>2016-03-23T20:59:48Z</time>
      </trkpt>
      <trkpt lat="44.83969" lon="-0.56101">
        <ele>8.31</ele>
        <time>2016-03-23T21:00:02Z</time>
      </trkpt>
      <trkpt lat="44.83978" lon="-0.56086">
        <ele>8.31</ele>
        <time>2016-03-23T21:00:15Z</time>
      </trkpt>
      <trkpt lat="44.83985" lon="-0.56072">
        <ele>8.31</ele>
        <time>2016-03-23T21:00:27Z</time>
      </trkpt>
      <trkpt lat="44.83995" lon="-0.56057">
        <ele>7.83</ele>
        <time>2016-03-23T21:00:40Z</time>
      </trkpt>
      <trkpt lat="44.84003" lon="-0.56055">
        <ele>7.35</ele>
        <time>2016-03-23T21:00:51Z</time>
      </trkpt>
      <trkpt lat="44.84009" lon="-0.56061">
        <ele>7.35</ele>
        <time>2016-03-23T21:01:08Z</time>
      </trkpt>
      <trkpt lat="44.84015" lon="-0.56066">
        <ele>6.87</ele>
        <time>2016-03-23T21:01:17Z</time>
      </trkpt>
      <trkpt lat="44.84026" lon="-0.56077">
        <ele>6.39</ele>
        <time>2016-03-23T21:01:33Z</time>
      </trkpt>
      <trkpt lat="44.8403" lon="-0.56082">
        <ele>6.39</ele>
        <time>2016-03-23T21:01:39Z</time>
      </trkpt>
      <trkpt lat="44.8403" lon="-0.56086">
        <ele>6.39</ele>
        <time>2016-03-23T21:01:42Z</time>
      </trkpt>
      <trkpt lat="44.84042" lon="-0.56097">
        <ele>5.42</ele>
        <time>2016-03-23T21:01:59Z</time>
      </trkpt>
      <trkpt lat="44.84053" lon="-0.56107">
        <ele>4.94</ele>
        <time>2016-03-23T21:02:13Z</time>
      </trkpt>
      <trkpt lat="44.84061" lon="-0.56119">
        <ele>4.94</ele>
        <time>2016-03-23T21:02:25Z</time>
      </trkpt>
      <trkpt lat="44.84063" lon="-0.56125">
        <ele>4.46</ele>
        <time>2016-03-23T21:02:40Z</time>
      </trkpt>
      <trkpt lat="44.84054" lon="-0.5612">
        <ele>0.62</ele>
        <time>2016-03-23T21:02:53Z</time>
      </trkpt>
      <trkpt lat="44.84053" lon="-0.56121">
        <ele>0.62</ele>
        <time>2016-03-23T21:02:54Z</time>
      </trkpt>
      <trkpt lat="44.84042" lon="-0.5611">
        <ele>1.1</ele>
        <time>2016-03-23T21:03:07Z</time>
      </trkpt>
      <trkpt lat="44.84032" lon="-0.56098">
        <ele>0.14</ele>
        <time>2016-03-23T21:03:20Z</time>
      </trkpt>
      <trkpt lat="44.84023" lon="-0.56086">
        <ele>0.14</ele>
        <time>2016-03-23T21:03:32Z</time>
      </trkpt>
      <trkpt lat="44.84015" lon="-0.56075">
        <ele>-0.34</ele>
        <time>2016-03-23T21:03:43Z</time>
      </trkpt>
      <trkpt lat="44.84004" lon="-0.56063">
        <ele>-0.34</ele>
        <time>2016-03-23T21:03:56Z</time>
      </trkpt>
      <trkpt lat="44.83999" lon="-0.56057">
        <ele>-0.34</ele>
        <time>2016-03-23T21:04:05Z</time>
      </trkpt>
      <trkpt lat="44.83995" lon="-0.56055">
        <ele>-0.34</ele>
        <time>2016-03-23T21:04:09Z</time>
      </trkpt>
      <trkpt lat="44.83992" lon="-0.56053">
        <ele>-0.34</ele>
        <time>2016-03-23T21:04:12Z</time>
      </trkpt>
      <trkpt lat="44.83965" lon="-0.56047">
        <ele>-1.3</ele>
        <time>2016-03-23T21:04:27Z</time>
      </trkpt>
      <trkpt lat="44.83968" lon="-0.56037">
        <ele>-1.3</ele>
        <time>2016-03-23T21:04:42Z</time>
      </trkpt>
      <trkpt lat="44.83971" lon="-0.56035">
        <ele>-1.3</ele>
        <time>2016-03-23T21:05:03Z</time>
      </trkpt>
      <trkpt lat="44.8397" lon="-0.56033">
        <ele>-1.3</ele>
        <time>2016-03-23T21:05:27Z</time>
      </trkpt>
      <trkpt lat="44.83968" lon="-0.56027">
        <ele>-1.3</ele>
        <time>2016-03-23T21:05:43Z</time>
      </trkpt>
      <trkpt lat="44.83966" lon="-0.56025">
        <ele>0.14</ele>
        <time>2016-03-23T21:06:10Z</time>
      </trkpt>
      <trkpt lat="44.83969" lon="-0.56024">
        <ele>-2.27</ele>
        <time>2016-03-23T21:17:53Z</time>
      </trkpt>
      <trkpt lat="44.8397" lon="-0.56023">
        <ele>-2.27</ele>
        <time>2016-03-23T21:18:16Z</time>
      </trkpt>
      <trkpt lat="44.8397" lon="-0.56022">
        <ele>-2.27</ele>
        <time>2016-03-23T21:18:42Z</time>
      </trkpt>
      <trkpt lat="44.83973" lon="-0.56021">
        <ele>-2.75</ele>
        <time>2016-03-23T21:19:05Z</time>
      </trkpt>
      <trkpt lat="44.83973" lon="-0.56021">
        <ele>-3.71</ele>
        <time>2016-03-23T21:21:44Z</time>
      </trkpt>
      <trkpt lat="44.83974" lon="-0.56021">
        <ele>-3.71</ele>
        <time>2016-03-23T21:24:16Z</time>
      </trkpt>
      <trkpt lat="44.83976" lon="-0.56018">
        <ele>-3.71</ele>
        <time>2016-03-23T21:24:40Z</time>
      </trkpt>
      <trkpt lat="44.83977" lon="-0.56017">
        <ele>-3.71</ele>
        <time>2016-03-23T21:24:50Z</time>
      </trkpt>
    </trkseg>
  </trk>
</gpx>